Merweborg — PDBM — position and weather

sailwx.info

Track history (hours):
 
Tides and Currents Weather Stations Pressure Air Temp Water Temp Dewpoint Dewpoint Depression Visibility Wind Speed Wind Dir Waves Ship Positions

Merweborg

Last reported at 2017-Nov-12 19:45 UTC. Time now 2017-Nov-17 19:49 UTC.
Position N 30°26' W 009°41'.

Length 135 m; draft 7.1 m.

Type: Ship. MMSI: 244860325.

Date/timePositionNaut miles runAvg speedWind from/ knotsBaromVisibWave heightAir tempDewpointWater temp
2017-Nov-12 19:45N 30°26' W 009°41'0 0.0
2017-Nov-12 19:18N 30°26' W 009°41'0 0.0
2017-Nov-12 18:51N 30°26' W 009°41'0 0.0
2017-Nov-12 18:18N 30°26' W 009°41'0 0.0
2017-Nov-12 17:51N 30°26' W 009°41'67 8.9
2017-Nov-12 10:23N 31°31' W 009°57'3 4.5
2017-Nov-12 09:43N 31°34' W 009°57'2811.2
2017-Nov-12 07:11N 32°02' W 009°58'211.6
2017-Nov-12 07:00N 32°04' W 009°58'611.7
2017-Nov-12 06:30N 32°10' W 009°58'28111.2
2017-Nov-11 05:29N 36°51' W 010°02'511.2
2017-Nov-11 05:00N 36°57' W 010°02'611.3
2017-Nov-11 04:30N 37°02' W 010°02'611.3
2017-Nov-11 04:00N 37°08' W 010°03'611.5
2017-Nov-11 03:30N 37°14' W 010°03'611.5
2017-Nov-11 02:59N 37°20' W 010°03'511.2
2017-Nov-11 02:30N 37°25' W 010°03'510.9
2017-Nov-11 02:00N 37°31' W 010°04'510.7
2017-Nov-11 01:30N 37°36' W 010°04'511.0
2017-Nov-11 01:00N 37°41' W 010°04'911.0
2017-Nov-11 00:11N 37°50' W 010°04'410.8
2017-Nov-10 23:52N 37°54' W 010°04'411.1
2017-Nov-10 23:30N 37°58' W 010°05'511.2
2017-Nov-10 23:00N 38°03' W 010°04'611.4
2017-Nov-10 22:30N 38°09' W 010°04'611.3
2017-Nov-10 22:00N 38°15' W 010°04'611.2
2017-Nov-10 21:30N 38°21' W 010°04'611.2
2017-Nov-10 21:00N 38°26' W 010°05'611.2
2017-Nov-10 20:30N 38°32' W 010°05'611.2
2017-Nov-10 20:00N 38°37' W 010°05'510.8
2017-Nov-10 19:30N 38°43' W 010°07'511.0
2017-Nov-10 19:01N 38°48' W 010°07'611.2
2017-Nov-10 18:30N 38°54' W 010°06'611.0
2017-Nov-10 18:00N 38°59' W 010°07'510.9
2017-Nov-10 17:30N 39°05' W 010°07'611.0
2017-Nov-10 17:00N 39°10' W 010°07'611.4
2017-Nov-10 16:30N 39°16' W 010°07'611.8
2017-Nov-10 16:00N 39°22' W 010°07'  
2017-Nov-07 23:24N 49°48' W 003°26'410.7
2017-Nov-07 23:00N 49°50' W 003°20'610.1
2017-Nov-07 22:26N 49°53' W 003°13'4 9.5
2017-Nov-07 21:58N 49°55' W 003°07'4 9.2
2017-Nov-07 21:30N 49°58' W 003°01'4 8.9
2017-Nov-07 21:00N 49°60' W 002°55'4 8.9
2017-Nov-07 20:30N 50°01' W 002°48'5 9.1
2017-Nov-07 20:00N 50°02' W 002°41'5 9.6
2017-Nov-07 19:30N 50°03' W 002°34'2211.7
2017-Nov-07 17:39N 50°09' W 002°02'313.6
2017-Nov-07 17:28N 50°10' W 001°58'614.2
2017-Nov-07 17:00N 50°12' W 001°48'714.3
2017-Nov-07 16:30N 50°14' W 001°37'714.3
2017-Nov-07 16:01N 50°16' W 001°27'714.3
2017-Nov-07 15:30N 50°18' W 001°16'3512.4
2017-Nov-07 12:43N 50°27' W 000°24'210.5
2017-Nov-07 12:30N 50°28' W 000°20'510.1
2017-Nov-07 12:00N 50°29' W 000°13'5 9.6
2017-Nov-07 11:29N 50°30' W 000°05'4 9.1
2017-Nov-07 11:01N 50°31' E 000°02'4 8.2
2017-Nov-07 10:31N 50°33' E 000°08'4 7.9
2017-Nov-07 10:00N 50°34' E 000°14'4 8.1
2017-Nov-07 09:30N 50°35' E 000°20'4 8.9
2017-Nov-07 09:01N 50°36' E 000°27'5 9.9
2017-Nov-07 08:31N 50°38' E 000°34'510.8
2017-Nov-07 08:01N 50°41' E 000°41'612.0
2017-Nov-07 07:31N 50°44' E 000°49'612.6
2017-Nov-07 07:00N 50°48' E 000°57'612.6
2017-Nov-07 06:30N 50°52' E 001°05'712.3
2017-Nov-07 05:58N 50°56' E 001°13'611.8
2017-Nov-07 05:30N 50°60' E 001°19'511.2
2017-Nov-07 05:01N 51°03' E 001°26'510.4
2017-Nov-07 04:30N 51°07' E 001°32'4 9.0
2017-Nov-07 04:00N 51°10' E 001°38'4 8.4
2017-Nov-07 03:30N 51°12' E 001°43'4 8.1
2017-Nov-07 03:00N 51°15' E 001°47'4 8.1
2017-Nov-07 02:30N 51°19' E 001°49'4 8.5
2017-Nov-07 02:00N 51°23' E 001°52'5 9.1
2017-Nov-07 01:30N 51°27' E 001°56'510.2
2017-Nov-07 01:00N 51°31' E 002°01'611.0
2017-Nov-07 00:30N 51°35' E 002°07'611.4
2017-Nov-06 23:57N 51°39' E 002°14'712.4
2017-Nov-06 23:24N 51°45' E 002°21'42810.1
2017-Nov-05 05:04N 57°34' E 009°30'1 8.7
2017-Nov-05 04:59N 57°34' E 009°31'4 8.7
2017-Nov-05 04:30N 57°36' E 009°37'4 8.5
2017-Nov-05 03:59N 57°38' E 009°45'4 8.6
2017-Nov-05 03:30N 57°40' E 009°52'4 8.6
2017-Nov-05 02:59N 57°42' E 009°60'12 8.7
2017-Nov-05 01:37N 57°46' E 010°20'1 9.3
2017-Nov-05 01:29N 57°46' E 010°22'4 9.2
2017-Nov-05 01:01N 57°47' E 010°30'4 8.5
2017-Nov-05 00:31N 57°48' E 010°38'4 8.6
2017-Nov-05 00:00N 57°48' E 010°46'5 9.9
2017-Nov-04 23:28N 57°44' E 010°54'510.0
2017-Nov-04 22:59N 57°41' E 011°00'510.2
2017-Nov-04 22:30N 57°38' E 011°07'510.4
2017-Nov-04 22:00N 57°34' E 011°14'610.5
2017-Nov-04 21:26N 57°30' E 011°23'510.2
2017-Nov-04 20:59N 57°27' E 011°28'510.4
2017-Nov-04 20:30N 57°22' E 011°31'510.2
2017-Nov-04 20:00N 57°17' E 011°34'611.8
2017-Nov-04 19:30N 57°11' E 011°38'612.4
2017-Nov-04 19:00N 57°06' E 011°41'2311.7
2017-Nov-04 17:02N 56°43' E 011°52'412.7
2017-Nov-04 16:45N 56°40' E 011°49'312.6
2017-Nov-04 16:31N 56°37' E 011°46'612.2
2017-Nov-04 16:00N 56°32' E 011°40'612.0
2017-Nov-04 15:30N 56°27' E 011°35'6910.9
2017-Nov-04 09:09N 55°20' E 011°02'512.0
2017-Nov-04 08:42N 55°15' E 011°06'212.1
2017-Nov-04 08:30N 55°13' E 011°06'611.9
2017-Nov-04 08:01N 55°07' E 011°03'612.4
2017-Nov-04 07:30N 55°01' E 011°02'612.7
2017-Nov-04 07:01N 54°56' E 010°55'713.1
2017-Nov-04 06:31N 54°49' E 010°53'612.7
2017-Nov-04 06:01N 54°43' E 010°53'611.7
2017-Nov-04 05:31N 54°39' E 011°01'612.0
2017-Nov-04 05:00N 54°36' E 011°10'611.3
2017-Nov-04 04:31N 54°34' E 011°19'611.4
2017-Nov-04 04:00N 54°32' E 011°28'611.3
2017-Nov-04 03:31N 54°29' E 011°37'611.3
2017-Nov-04 03:00N 54°27' E 011°45'511.0
2017-Nov-04 02:30N 54°27' E 011°55'510.9
2017-Nov-04 02:00N 54°27' E 012°04'5 9.8
2017-Nov-04 01:30N 54°30' E 012°11'6011.0
2017-Nov-03 20:01N 54°60' E 013°41'211.3
2017-Nov-03 19:51N 55°00' E 013°44'511.2
2017-Nov-03 19:23N 55°02' E 013°53'911.1
2017-Nov-03 18:33N 55°06' E 014°07'111.7
2017-Nov-03 18:26N 55°07' E 014°08'612.1
2017-Nov-03 17:55N 55°12' E 014°15'512.2
2017-Nov-03 17:30N 55°16' E 014°20'612.1
2017-Nov-03 17:00N 55°21' E 014°27'612.0
2017-Nov-03 16:30N 55°26' E 014°33'611.9
2017-Nov-03 16:00N 55°29' E 014°42'612.1
2017-Nov-03 15:29N 55°33' E 014°51'712.0
2017-Nov-03 14:56N 55°36' E 015°02'512.0
2017-Nov-03 14:30N 55°38' E 015°09'612.0
2017-Nov-03 14:01N 55°41' E 015°19'612.1
2017-Nov-03 13:31N 55°44' E 015°28'612.1
2017-Nov-03 13:00N 55°48' E 015°37'612.1
2017-Nov-03 12:31N 55°51' E 015°46'612.2
2017-Nov-03 12:01N 55°54' E 015°56'612.1
2017-Nov-03 11:30N 55°57' E 016°05'612.1
2017-Nov-03 11:01N 55°59' E 016°15'612.2
2017-Nov-03 10:31N 56°02' E 016°24'612.3
2017-Nov-03 10:00N 56°05' E 016°34'612.2
2017-Nov-03 09:30N 56°09' E 016°43'612.2
2017-Nov-03 09:00N 56°15' E 016°47'  
Track history (hours):
 
Tides and Currents Weather Stations Pressure Air Temp Water Temp Dewpoint Dewpoint Depression Visibility Wind Speed Wind Dir Waves Ship Positions

Merweborg

Last reported at 2017-Nov-12 19:45 UTC. Time now 2017-Nov-17 19:49 UTC.
Position N 30°26' W 009°41'.

Length 135 m; draft 7.1 m.

Type: Ship. MMSI: 244860325.

Date/timePositionNaut miles runAvg speedWind from/ knotsBaromVisibWave heightAir tempDewpointWater temp
2017-Nov-12 19:45N 30°26' W 009°41'0 0.0
2017-Nov-12 19:18N 30°26' W 009°41'0 0.0
2017-Nov-12 18:51N 30°26' W 009°41'0 0.0
2017-Nov-12 18:18N 30°26' W 009°41'0 0.0
2017-Nov-12 17:51N 30°26' W 009°41'67 8.9
2017-Nov-12 10:23N 31°31' W 009°57'3 4.5
2017-Nov-12 09:43N 31°34' W 009°57'2811.2
2017-Nov-12 07:11N 32°02' W 009°58'211.6
2017-Nov-12 07:00N 32°04' W 009°58'611.7
2017-Nov-12 06:30N 32°10' W 009°58'28111.2
2017-Nov-11 05:29N 36°51' W 010°02'511.2
2017-Nov-11 05:00N 36°57' W 010°02'611.3
2017-Nov-11 04:30N 37°02' W 010°02'611.3
2017-Nov-11 04:00N 37°08' W 010°03'611.5
2017-Nov-11 03:30N 37°14' W 010°03'611.5
2017-Nov-11 02:59N 37°20' W 010°03'511.2
2017-Nov-11 02:30N 37°25' W 010°03'510.9
2017-Nov-11 02:00N 37°31' W 010°04'510.7
2017-Nov-11 01:30N 37°36' W 010°04'511.0
2017-Nov-11 01:00N 37°41' W 010°04'911.0
2017-Nov-11 00:11N 37°50' W 010°04'410.8
2017-Nov-10 23:52N 37°54' W 010°04'411.1
2017-Nov-10 23:30N 37°58' W 010°05'511.2
2017-Nov-10 23:00N 38°03' W 010°04'611.4
2017-Nov-10 22:30N 38°09' W 010°04'611.3
2017-Nov-10 22:00N 38°15' W 010°04'611.2
2017-Nov-10 21:30N 38°21' W 010°04'611.2
2017-Nov-10 21:00N 38°26' W 010°05'611.2
2017-Nov-10 20:30N 38°32' W 010°05'611.2
2017-Nov-10 20:00N 38°37' W 010°05'510.8
2017-Nov-10 19:30N 38°43' W 010°07'511.0
2017-Nov-10 19:01N 38°48' W 010°07'611.2
2017-Nov-10 18:30N 38°54' W 010°06'611.0
2017-Nov-10 18:00N 38°59' W 010°07'510.9
2017-Nov-10 17:30N 39°05' W 010°07'611.0
2017-Nov-10 17:00N 39°10' W 010°07'611.4
2017-Nov-10 16:30N 39°16' W 010°07'611.8
2017-Nov-10 16:00N 39°22' W 010°07'  
2017-Nov-07 23:24N 49°48' W 003°26'410.7
2017-Nov-07 23:00N 49°50' W 003°20'610.1
2017-Nov-07 22:26N 49°53' W 003°13'4 9.5
2017-Nov-07 21:58N 49°55' W 003°07'4 9.2
2017-Nov-07 21:30N 49°58' W 003°01'4 8.9
2017-Nov-07 21:00N 49°60' W 002°55'4 8.9
2017-Nov-07 20:30N 50°01' W 002°48'5 9.1
2017-Nov-07 20:00N 50°02' W 002°41'5 9.6
2017-Nov-07 19:30N 50°03' W 002°34'2211.7
2017-Nov-07 17:39N 50°09' W 002°02'313.6
2017-Nov-07 17:28N 50°10' W 001°58'614.2
2017-Nov-07 17:00N 50°12' W 001°48'714.3
2017-Nov-07 16:30N 50°14' W 001°37'714.3
2017-Nov-07 16:01N 50°16' W 001°27'714.3
2017-Nov-07 15:30N 50°18' W 001°16'3512.4
2017-Nov-07 12:43N 50°27' W 000°24'210.5
2017-Nov-07 12:30N 50°28' W 000°20'510.1
2017-Nov-07 12:00N 50°29' W 000°13'5 9.6
2017-Nov-07 11:29N 50°30' W 000°05'4 9.1
2017-Nov-07 11:01N 50°31' E 000°02'4 8.2
2017-Nov-07 10:31N 50°33' E 000°08'4 7.9
2017-Nov-07 10:00N 50°34' E 000°14'4 8.1
2017-Nov-07 09:30N 50°35' E 000°20'4 8.9
2017-Nov-07 09:01N 50°36' E 000°27'5 9.9
2017-Nov-07 08:31N 50°38' E 000°34'510.8
2017-Nov-07 08:01N 50°41' E 000°41'612.0
2017-Nov-07 07:31N 50°44' E 000°49'612.6
2017-Nov-07 07:00N 50°48' E 000°57'612.6
2017-Nov-07 06:30N 50°52' E 001°05'712.3
2017-Nov-07 05:58N 50°56' E 001°13'611.8
2017-Nov-07 05:30N 50°60' E 001°19'511.2
2017-Nov-07 05:01N 51°03' E 001°26'510.4
2017-Nov-07 04:30N 51°07' E 001°32'4 9.0
2017-Nov-07 04:00N 51°10' E 001°38'4 8.4
2017-Nov-07 03:30N 51°12' E 001°43'4 8.1
2017-Nov-07 03:00N 51°15' E 001°47'4 8.1
2017-Nov-07 02:30N 51°19' E 001°49'4 8.5
2017-Nov-07 02:00N 51°23' E 001°52'5 9.1
2017-Nov-07 01:30N 51°27' E 001°56'510.2
2017-Nov-07 01:00N 51°31' E 002°01'611.0
2017-Nov-07 00:30N 51°35' E 002°07'611.4
2017-Nov-06 23:57N 51°39' E 002°14'712.4
2017-Nov-06 23:24N 51°45' E 002°21'42810.1
2017-Nov-05 05:04N 57°34' E 009°30'1 8.7
2017-Nov-05 04:59N 57°34' E 009°31'4 8.7
2017-Nov-05 04:30N 57°36' E 009°37'4 8.5
2017-Nov-05 03:59N 57°38' E 009°45'4 8.6
2017-Nov-05 03:30N 57°40' E 009°52'4 8.6
2017-Nov-05 02:59N 57°42' E 009°60'12 8.7
2017-Nov-05 01:37N 57°46' E 010°20'1 9.3
2017-Nov-05 01:29N 57°46' E 010°22'4 9.2
2017-Nov-05 01:01N 57°47' E 010°30'4 8.5
2017-Nov-05 00:31N 57°48' E 010°38'4 8.6
2017-Nov-05 00:00N 57°48' E 010°46'5 9.9
2017-Nov-04 23:28N 57°44' E 010°54'510.0
2017-Nov-04 22:59N 57°41' E 011°00'510.2
2017-Nov-04 22:30N 57°38' E 011°07'510.4
2017-Nov-04 22:00N 57°34' E 011°14'610.5
2017-Nov-04 21:26N 57°30' E 011°23'510.2
2017-Nov-04 20:59N 57°27' E 011°28'510.4
2017-Nov-04 20:30N 57°22' E 011°31'510.2
2017-Nov-04 20:00N 57°17' E 011°34'611.8
2017-Nov-04 19:30N 57°11' E 011°38'612.4
2017-Nov-04 19:00N 57°06' E 011°41'2311.7
2017-Nov-04 17:02N 56°43' E 011°52'412.7
2017-Nov-04 16:45N 56°40' E 011°49'312.6
2017-Nov-04 16:31N 56°37' E 011°46'612.2
2017-Nov-04 16:00N 56°32' E 011°40'612.0
2017-Nov-04 15:30N 56°27' E 011°35'6910.9
2017-Nov-04 09:09N 55°20' E 011°02'512.0
2017-Nov-04 08:42N 55°15' E 011°06'212.1
2017-Nov-04 08:30N 55°13' E 011°06'611.9
2017-Nov-04 08:01N 55°07' E 011°03'612.4
2017-Nov-04 07:30N 55°01' E 011°02'612.7
2017-Nov-04 07:01N 54°56' E 010°55'713.1
2017-Nov-04 06:31N 54°49' E 010°53'612.7
2017-Nov-04 06:01N 54°43' E 010°53'611.7
2017-Nov-04 05:31N 54°39' E 011°01'612.0
2017-Nov-04 05:00N 54°36' E 011°10'611.3
2017-Nov-04 04:31N 54°34' E 011°19'611.4
2017-Nov-04 04:00N 54°32' E 011°28'611.3
2017-Nov-04 03:31N 54°29' E 011°37'611.3
2017-Nov-04 03:00N 54°27' E 011°45'511.0
2017-Nov-04 02:30N 54°27' E 011°55'510.9
2017-Nov-04 02:00N 54°27' E 012°04'5 9.8
2017-Nov-04 01:30N 54°30' E 012°11'6011.0
2017-Nov-03 20:01N 54°60' E 013°41'211.3
2017-Nov-03 19:51N 55°00' E 013°44'511.2
2017-Nov-03 19:23N 55°02' E 013°53'911.1
2017-Nov-03 18:33N 55°06' E 014°07'111.7
2017-Nov-03 18:26N 55°07' E 014°08'612.1
2017-Nov-03 17:55N 55°12' E 014°15'512.2
2017-Nov-03 17:30N 55°16' E 014°20'612.1
2017-Nov-03 17:00N 55°21' E 014°27'612.0
2017-Nov-03 16:30N 55°26' E 014°33'611.9
2017-Nov-03 16:00N 55°29' E 014°42'612.1
2017-Nov-03 15:29N 55°33' E 014°51'712.0
2017-Nov-03 14:56N 55°36' E 015°02'512.0
2017-Nov-03 14:30N 55°38' E 015°09'612.0
2017-Nov-03 14:01N 55°41' E 015°19'612.1
2017-Nov-03 13:31N 55°44' E 015°28'612.1
2017-Nov-03 13:00N 55°48' E 015°37'612.1
2017-Nov-03 12:31N 55°51' E 015°46'612.2
2017-Nov-03 12:01N 55°54' E 015°56'612.1
2017-Nov-03 11:30N 55°57' E 016°05'612.1
2017-Nov-03 11:01N 55°59' E 016°15'612.2
2017-Nov-03 10:31N 56°02' E 016°24'612.3
2017-Nov-03 10:00N 56°05' E 016°34'612.2
2017-Nov-03 09:30N 56°09' E 016°43'612.2
2017-Nov-03 09:00N 56°15' E 016°47'  

Dump ship's entire track history